Time;durP1;ratioP1;P1;durP2;ratioP2;P2;SDS_P1;SDS_P2;PMS_P1;PMS_P2;Temp;Humidity;BMP_temperature;BMP_pressure;BME280_temperature;BME280_humidity;BME280_pressure;Samples;Min_cycle;Max_cycle;Signal;HPM_P1;HPM_P2
2021/04/15 00:00:42;;;;;;;10.82;8.57;;;2.10;99.90;;;;;;5010386;28;20022;-70
2021/04/15 00:03:16;;;;;;;12.07;9.02;;;2.00;99.90;;;;;;5027722;28;20104;-72
2021/04/15 00:05:43;;;;;;;11.50;8.60;;;2.00;99.90;;;;;;5010738;28;20018;-72
2021/04/15 00:08:09;;;;;;;9.38;8.15;;;2.10;99.90;;;;;;5010776;28;20104;-71
2021/04/15 00:10:39;;;;;;;9.80;8.70;;;2.00;99.90;;;;;;5012859;28;20030;-72
2021/04/15 00:13:09;;;;;;;12.90;8.52;;;1.90;99.90;;;;;;5014659;28;20125;-71
2021/04/15 00:15:35;;;;;;;10.23;9.02;;;1.90;99.90;;;;;;5019187;28;20053;-72
2021/04/15 00:18:00;;;;;;;11.52;9.05;;;1.80;99.90;;;;;;5020061;28;20040;-72
2021/04/15 00:20:26;;;;;;;9.80;8.85;;;1.80;99.90;;;;;;5016688;28;20026;-70
2021/04/15 00:22:52;;;;;;;11.57;9.68;;;1.80;99.90;;;;;;5020140;28;20026;-71
2021/04/15 00:25:17;;;;;;;12.65;8.63;;;1.70;99.90;;;;;;5023763;28;20038;-71
2021/04/15 00:27:43;;;;;;;11.15;9.93;;;1.70;99.90;;;;;;5024975;28;20026;-71
2021/04/15 00:30:11;;;;;;;10.85;9.45;;;1.70;99.90;;;;;;5030205;28;20033;-72
2021/04/15 00:32:36;;;;;;;12.20;9.10;;;1.70;99.90;;;;;;5026497;28;20048;-71
2021/04/15 00:35:02;;;;;;;10.50;9.05;;;1.70;99.90;;;;;;5019498;28;20053;-72
2021/04/15 00:37:28;;;;;;;11.48;10.23;;;1.70;99.90;;;;;;5023268;28;20033;-71
2021/04/15 00:39:54;;;;;;;12.55;11.35;;;1.70;99.90;;;;;;5025831;28;20030;-71
2021/04/15 00:42:19;;;;;;;10.60;9.50;;;1.70;99.90;;;;;;5016830;28;20041;-71
2021/04/15 00:44:45;;;;;;;11.80;10.70;;;1.70;99.90;;;;;;5019097;28;20030;-72
2021/04/15 00:47:17;;;;;;;10.95;9.85;;;1.70;99.90;;;;;;5018700;28;20478;-72
2021/04/15 00:49:57;;;;;;;12.82;11.55;;;1.60;99.90;;;;;;5016717;28;20037;-71
2021/04/15 00:52:25;;;;;;;11.75;10.60;;;1.60;99.90;;;;;;5020187;28;20049;-71
2021/04/15 00:55:12;;;;;;;11.77;10.55;;;1.50;99.90;;;;;;5013652;28;20104;-72
2021/04/15 00:57:40;;;;;;;14.00;10.95;;;1.60;99.90;;;;;;5015449;28;20037;-72
2021/04/15 01:00:09;;;;;;;13.88;11.52;;;1.60;99.90;;;;;;5020740;28;20088;-71
2021/04/15 01:02:36;;;;;;;13.98;11.23;;;1.60;99.90;;;;;;5026126;28;20144;-70
2021/04/15 01:05:10;;;;;;;12.75;11.52;;;1.60;99.90;;;;;;5021562;28;20500;-70
2021/04/15 01:07:36;;;;;;;13.05;11.57;;;1.60;99.90;;;;;;5016634;28;20061;-72
2021/04/15 01:10:04;;;;;;;11.50;10.30;;;1.50;99.90;;;;;;5011402;28;20030;-71
2021/04/15 01:12:53;;;;;;;11.00;9.90;;;1.40;99.90;;;;;;5013523;28;20017;-71
2021/04/15 01:15:27;;;;;;;11.77;10.13;;;1.40;99.90;;;;;;5010972;28;20048;-71
2021/04/15 01:17:58;;;;;;;12.80;10.60;;;1.40;99.90;;;;;;5010882;28;20040;-71
2021/04/15 01:20:54;;;;;;;11.57;10.20;;;1.30;1.00;;;;;;5010955;28;20038;-71
2021/04/15 01:23:55;;;;;;;10.98;9.82;;;1.30;1.00;;;;;;5006483;28;20031;-71
2021/04/15 01:26:42;;;;;;;11.85;10.07;;;1.30;1.00;;;;;;4951551;28;21655;-72
2021/04/15 01:29:18;;;;;;;11.98;10.00;;;1.30;1.00;;;;;;5007895;28;20065;-71
2021/04/15 01:32:04;;;;;;;14.60;10.27;;;1.30;1.00;;;;;;5007176;28;20026;-71
2021/04/15 01:34:46;;;;;;;11.75;10.13;;;1.30;1.00;;;;;;5000115;28;20026;-71
2021/04/15 01:37:33;;;;;;;13.13;10.73;;;1.20;1.00;;;;;;5009250;28;20371;-71
2021/04/15 01:40:23;;;;;;;15.38;11.07;;;1.20;1.00;;;;;;5008666;28;20026;-71
2021/04/15 01:43:13;;;;;;;12.40;10.38;;;1.20;1.00;;;;;;5010046;28;20022;-71
2021/04/15 01:45:39;;;;;;;11.85;10.07;;;1.20;1.00;;;;;;5003742;28;20030;-71
2021/04/15 01:48:12;;;;;;;11.57;10.18;;;1.10;1.00;;;;;;5009801;28;20037;-71
2021/04/15 01:50:44;;;;;;;13.05;10.57;;;1.10;1.00;;;;;;5007464;28;20060;-71
2021/04/15 01:53:23;;;;;;;12.40;11.13;;;1.00;1.00;;;;;;5011803;28;20025;-72
2021/04/15 01:55:54;;;;;;;11.80;9.68;;;1.10;1.00;;;;;;5007368;28;20432;-72
2021/04/15 01:58:38;;;;;;;14.18;11.70;;;1.10;1.00;;;;;;5008174;28;20053;-72
2021/04/15 02:01:09;;;;;;;11.43;10.25;;;1.10;1.00;;;;;;5013024;28;20026;-72
2021/04/15 02:03:37;;;;;;;11.73;10.60;;;1.00;1.00;;;;;;5013164;28;20021;-70
2021/04/15 02:06:10;;;;;;;14.52;11.38;;;1.00;1.00;;;;;;5009215;28;20029;-72
2021/04/15 02:08:41;;;;;;;13.13;11.82;;;1.10;1.00;;;;;;5008637;28;21105;-72
2021/04/15 02:11:18;;;;;;;15.10;13.45;;;1.00;1.00;;;;;;5002891;28;20092;-72
2021/04/15 02:13:46;;;;;;;13.15;10.75;;;1.10;1.00;;;;;;5000506;28;20492;-71
2021/04/15 02:16:16;;;;;;;13.32;10.80;;;1.40;99.90;;;;;;5010295;28;20492;-72
2021/04/15 02:18:53;;;;;;;12.80;10.70;;;1.40;99.90;;;;;;5012652;28;20026;-71
2021/04/15 02:21:43;;;;;;;12.68;11.07;;;1.30;99.90;;;;;;5006139;28;20014;-71
2021/04/15 02:24:23;;;;;;;12.48;11.18;;;1.20;99.90;;;;;;5012583;28;20385;-73
2021/04/15 02:26:56;;;;;;;13.13;11.80;;;1.10;99.90;;;;;;5007589;28;20025;-71
2021/04/15 02:29:24;;;;;;;11.52;10.32;;;1.10;1.00;;;;;;5012179;28;20066;-71
2021/04/15 02:31:57;;;;;;;12.68;11.38;;;1.30;99.90;;;;;;5015352;28;20029;-72
2021/04/15 02:34:32;;;;;;;16.42;11.93;;;1.40;99.90;;;;;;5011724;28;20022;-70
2021/04/15 02:37:06;;;;;;;13.88;10.75;;;1.40;99.90;;;;;;5004152;28;20065;-70
2021/04/15 02:39:38;;;;;;;13.40;10.85;;;1.40;99.90;;;;;;5011602;28;20021;-71
2021/04/15 02:42:10;;;;;;;19.58;12.13;;;1.50;99.90;;;;;;5019582;28;20501;-71
2021/04/15 02:44:48;;;;;;;12.25;10.95;;;1.50;99.90;;;;;;5017160;28;20022;-72
2021/04/15 02:47:32;;;;;;;13.07;11.70;;;1.30;99.90;;;;;;5012266;28;20393;-71
2021/04/15 02:50:00;;;;;;;12.90;11.57;;;1.10;99.90;;;;;;5006560;28;20052;-72
2021/04/15 02:52:32;;;;;;;13.65;12.05;;;1.20;99.90;;;;;;5008931;28;20168;-72
2021/04/15 02:55:03;;;;;;;15.88;12.15;;;1.10;99.90;;;;;;5006506;28;20047;-72
2021/04/15 02:57:34;;;;;;;14.32;11.75;;;1.10;99.90;;;;;;5011740;28;20366;-72
2021/04/15 03:00:04;;;;;;;12.95;11.63;;;1.00;99.90;;;;;;5008480;28;20026;-72
2021/04/15 03:02:33;;;;;;;13.43;11.75;;;0.90;99.90;;;;;;5007637;28;20073;-71
2021/04/15 03:05:12;;;;;;;13.55;11.98;;;0.80;1.00;;;;;;5009706;28;20041;-71
2021/04/15 03:07:40;;;;;;;15.50;12.07;;;0.80;1.00;;;;;;5002546;28;20504;-71
2021/04/15 03:10:13;;;;;;;12.68;11.43;;;0.80;99.90;;;;;;5015704;28;20036;-71
2021/04/15 03:12:41;;;;;;;12.85;11.38;;;0.80;1.00;;;;;;5009985;28;20445;-71
2021/04/15 03:15:19;;;;;;;13.35;11.32;;;0.80;1.00;;;;;;5015324;28;20491;-72
2021/04/15 03:17:50;;;;;;;12.25;11.00;;;0.70;1.00;;;;;;5016773;28;20029;-71
2021/04/15 03:20:24;;;;;;;12.45;10.48;;;0.80;1.00;;;;;;5016091;28;20022;-71
2021/04/15 03:23:01;;;;;;;16.80;12.30;;;0.70;1.00;;;;;;5014071;28;20022;-72
2021/04/15 03:25:27;;;;;;;15.27;11.55;;;0.70;1.00;;;;;;5017156;28;20057;-72
2021/04/15 03:28:17;;;;;;;14.80;11.98;;;0.60;1.00;;;;;;5026776;28;20108;-74
2021/04/15 03:30:54;;;;;;;13.63;10.82;;;0.60;1.00;;;;;;5018234;28;20129;-71
2021/04/15 03:33:23;;;;;;;11.65;10.40;;;1.00;99.90;;;;;;5017812;28;20030;-71
2021/04/15 03:36:06;;;;;;;11.45;10.25;;;1.10;99.90;;;;;;5011553;28;20056;-71
2021/04/15 03:38:39;;;;;;;12.27;11.07;;;1.10;99.90;;;;;;5016657;28;20030;-71
2021/04/15 03:41:30;;;;;;;13.40;10.70;;;0.80;99.90;;;;;;5014983;28;20022;-72
2021/04/15 03:43:58;;;;;;;11.25;10.15;;;0.80;99.90;;;;;;5012442;28;20460;-71
2021/04/15 03:46:36;;;;;;;12.40;11.00;;;0.90;99.90;;;;;;5008629;28;20088;-71
2021/04/15 03:49:14;;;;;;;14.85;11.00;;;0.90;99.90;;;;;;5008907;28;20023;-71
2021/04/15 03:51:46;;;;;;;13.00;10.35;;;0.70;99.90;;;;;;5010313;28;20508;-71
2021/04/15 03:54:16;;;;;;;15.40;10.50;;;0.60;99.90;;;;;;5014609;28;20112;-71
2021/04/15 03:56:49;;;;;;;16.80;11.93;;;0.70;99.90;;;;;;5010042;28;20370;-72
2021/04/15 03:59:26;;;;;;;14.80;11.25;;;0.60;99.90;;;;;;5013956;28;20072;-71
2021/04/15 04:02:00;;;;;;;14.90;11.23;;;0.50;99.90;;;;;;5015697;28;20493;-72
2021/04/15 04:04:40;;;;;;;19.00;11.88;;;0.40;1.00;;;;;;5010810;28;20453;-72
2021/04/15 04:07:23;;;;;;;13.13;11.07;;;0.40;1.00;;;;;;5014867;28;20032;-71
2021/04/15 04:10:07;;;;;;;14.60;11.50;;;0.30;1.00;;;;;;5011159;28;20018;-73
2021/04/15 04:12:42;;;;;;;12.43;10.80;;;0.30;1.00;;;;;;5012937;28;20073;-72
2021/04/15 04:15:31;;;;;;;15.90;9.88;;;0.30;1.00;;;;;;5015124;28;20022;-71
2021/04/15 04:18:10;;;;;;;16.77;10.88;;;0.20;1.00;;;;;;5007133;28;20036;-71
2021/04/15 04:20:40;;;;;;;16.10;11.55;;;0.20;1.00;;;;;;5013222;28;20440;-72
2021/04/15 04:23:24;;;;;;;14.85;11.25;;;0.20;1.00;;;;;;5014033;28;20022;-73
2021/04/15 04:26:28;;;;;;;16.85;11.27;;;0.10;1.00;;;;;;5013176;28;20022;-71
2021/04/15 04:29:14;;;;;;;13.23;11.00;;;0.20;1.00;;;;;;5007650;28;20037;-72
2021/04/15 04:31:43;;;;;;;9.73;8.77;;;0.30;1.00;;;;;;5010475;28;20021;-71
2021/04/15 04:34:11;;;;;;;15.18;11.27;;;0.30;1.00;;;;;;5009176;28;20053;-73
2021/04/15 04:36:38;;;;;;;21.55;10.98;;;0.20;1.00;;;;;;5011598;28;20076;-72
2021/04/15 04:39:05;;;;;;;13.00;10.48;;;0.20;1.00;;;;;;5015259;28;20026;-72
2021/04/15 04:41:55;;;;;;;13.63;10.25;;;0.30;1.00;;;;;;5010618;28;20048;-71
2021/04/15 04:44:41;;;;;;;12.43;9.25;;;0.40;1.00;;;;;;5006298;28;20029;-72
2021/04/15 04:47:27;;;;;;;13.60;9.23;;;0.50;1.00;;;;;;5012723;28;20030;-72
2021/04/15 04:50:28;;;;;;;14.80;8.32;;;0.70;99.90;;;;;;5013188;28;20374;-73
2021/04/15 04:53:06;;;;;;;16.48;9.48;;;0.70;99.90;;;;;;5012762;28;20034;-71
2021/04/15 04:55:46;;;;;;;11.48;8.57;;;0.70;99.90;;;;;;5024358;28;20061;-71
2021/04/15 04:58:15;;;;;;;11.88;9.23;;;1.00;99.90;;;;;;5022852;28;20029;-72
2021/04/15 05:00:54;;;;;;;15.90;7.85;;;1.50;99.90;;;;;;5017780;28;20028;-73
2021/04/15 05:03:23;;;;;;;16.98;9.00;;;2.10;99.90;;;;;;5015301;28;20064;-72
2021/04/15 05:05:49;;;;;;;14.65;8.23;;;2.60;99.90;;;;;;5012777;28;20022;-71
2021/04/15 05:08:26;;;;;;;12.13;7.90;;;3.00;99.90;;;;;;5010979;28;20030;-71
2021/04/15 05:10:54;;;;;;;12.07;7.22;;;3.40;99.90;;;;;;5013987;28;20057;-73
2021/04/15 05:13:26;;;;;;;13.55;8.50;;;3.60;99.90;;;;;;5015998;28;20025;-71
2021/04/15 05:15:53;;;;;;;13.88;7.85;;;3.20;99.90;;;;;;5015310;28;20073;-71
2021/04/15 05:18:21;;;;;;;15.88;7.90;;;3.70;99.90;;;;;;5015932;28;20030;-72
2021/04/15 05:20:48;;;;;;;16.48;7.43;;;4.00;1.00;;;;;;5013859;28;20018;-71
2021/04/15 05:23:26;;;;;;;11.70;6.72;;;3.80;78.50;;;;;;5013615;28;20022;-71
2021/04/15 05:26:13;;;;;;;9.02;5.63;;;3.60;41.40;;;;;;5009024;28;20294;-71
2021/04/15 05:28:40;;;;;;;9.65;5.75;;;3.40;75.20;;;;;;5022939;28;20057;-71
2021/04/15 05:31:09;;;;;;;5.43;4.93;;;3.50;61.10;;;;;;5027141;28;20029;-74
2021/04/15 05:33:36;;;;;;;7.07;5.03;;;3.60;11.80;;;;;;5025204;28;20076;-72
2021/04/15 05:36:15;;;;;;;7.00;5.50;;;3.70;99.90;;;;;;5017246;28;20124;-72
2021/04/15 05:38:50;;;;;;;8.10;5.78;;;3.70;1.00;;;;;;5012928;28;20034;-71
2021/04/15 05:41:47;;;;;;;7.40;5.28;;;3.60;1.00;;;;;;5024382;28;20457;-72
2021/04/15 05:44:44;;;;;;;6.35;5.55;;;3.80;1.00;;;;;;5012274;28;20037;-71
2021/04/15 05:47:15;;;;;;;9.00;5.50;;;4.30;1.00;;;;;;4989536;28;20061;-71
2021/04/15 05:49:47;;;;;;;10.40;5.80;;;4.50;1.00;;;;;;5011832;28;20458;-71
2021/04/15 05:52:24;;;;;;;9.02;5.53;;;5.00;99.90;;;;;;5012987;28;20034;-71
2021/04/15 05:54:52;;;;;;;10.05;5.53;;;4.60;99.90;;;;;;5048419;22;20054;-74
2021/04/15 05:57:22;;;;;;;7.10;5.78;;;4.00;1.00;;;;;;5027468;28;20039;-74
2021/04/15 06:00:06;;;;;;;12.75;5.60;;;3.80;1.00;;;;;;5022526;28;20524;-74
2021/04/15 06:03:00;;;;;;;6.35;5.70;;;4.20;1.00;;;;;;5032654;28;20018;-74
2021/04/15 06:05:53;;;;;;;7.13;6.38;;;3.40;41.80;;;;;;5011837;28;20050;-73
2021/04/15 06:08:20;;;;;;;7.78;5.88;;;3.40;99.90;;;;;;5011879;28;20452;-73
2021/04/15 06:10:47;;;;;;;8.65;6.90;;;3.40;75.00;;;;;;5011690;28;20029;-74
2021/04/15 06:13:37;;;;;;;6.68;5.97;;;3.20;99.90;;;;;;5012546;28;20034;-72
2021/04/15 06:16:07;;;;;;;8.27;6.57;;;3.30;99.90;;;;;;5001864;28;20033;-73
2021/04/15 06:18:41;;;;;;;8.10;6.43;;;3.10;99.90;;;;;;5003700;28;20477;-75
2021/04/15 06:21:29;;;;;;;7.97;5.85;;;2.90;99.90;;;;;;5006610;28;20420;-75
2021/04/15 06:24:04;;;;;;;7.00;6.30;;;3.30;99.90;;;;;;5017975;28;20018;-73
2021/04/15 06:26:32;;;;;;;8.70;6.82;;;3.70;90.90;;;;;;5024739;28;20094;-73
2021/04/15 06:29:03;;;;;;;7.88;6.32;;;3.70;29.20;;;;;;5031775;28;20042;-72
2021/04/15 06:31:33;;;;;;;7.03;6.32;;;3.50;86.10;;;;;;5028551;28;20053;-73
2021/04/15 06:34:01;;;;;;;10.90;6.43;;;3.40;98.60;;;;;;5030476;28;20018;-73
2021/04/15 06:36:40;;;;;;;11.13;6.07;;;3.60;82.60;;;;;;5017993;28;20034;-74
2021/04/15 06:39:26;;;;;;;14.43;7.28;;;3.80;68.70;;;;;;5007399;28;20049;-74
2021/04/15 06:42:01;;;;;;;12.68;6.75;;;3.80;46.20;;;;;;5007994;28;20022;-74
2021/04/15 06:44:52;;;;;;;8.95;6.38;;;3.70;94.40;;;;;;5019887;28;20108;-73
2021/04/15 06:47:28;;;;;;;10.18;6.15;;;4.00;32.30;;;;;;5019257;28;20045;-72
2021/04/15 06:50:16;;;;;;;9.73;6.75;;;4.30;1.00;;;;;;5021210;28;20034;-74
2021/04/15 06:53:09;;;;;;;14.15;6.38;;;4.30;1.00;;;;;;5008077;28;20037;-73
2021/04/15 06:56:08;;;;;;;10.95;6.32;;;4.40;1.00;;;;;;5011130;28;20472;-75
2021/04/15 06:59:11;;;;;;;6.93;5.97;;;4.30;1.00;;;;;;4998200;28;20034;-72
2021/04/15 07:01:53;;;;;;;8.75;5.90;;;4.50;1.00;;;;;;5002033;28;20022;-74
2021/04/15 07:04:23;;;;;;;9.55;6.45;;;4.50;1.00;;;;;;5010708;28;20026;-74
2021/04/15 07:07:11;;;;;;;9.43;5.20;;;4.70;1.00;;;;;;5010875;28;20452;-73
2021/04/15 07:09:54;;;;;;;6.28;5.68;;;4.50;1.00;;;;;;5004414;28;20038;-73
2021/04/15 07:12:39;;;;;;;10.77;7.22;;;4.20;1.00;;;;;;5005166;28;20037;-73
2021/04/15 07:15:50;;;;;;;9.52;6.22;;;4.30;1.00;;;;;;5006969;28;20033;-73
2021/04/15 07:19:00;;;;;;;10.30;7.05;;;4.40;1.00;;;;;;5009293;28;20026;-73
2021/04/15 07:22:03;;;;;;;9.93;6.50;;;4.80;1.00;;;;;;5006034;28;20496;-75
2021/04/15 07:24:34;;;;;;;8.63;7.35;;;5.20;99.90;;;;;;5011150;28;20029;-73
2021/04/15 07:27:20;;;;;;;7.28;6.53;;;5.20;1.00;;;;;;5005585;28;20457;-74
2021/04/15 07:30:02;;;;;;;7.30;5.68;;;5.40;99.90;;;;;;5009598;28;20129;-73
2021/04/15 07:32:48;;;;;;;8.75;5.18;;;5.30;99.90;;;;;;5011066;28;20042;-74
2021/04/15 07:35:43;;;;;;;6.07;5.20;;;5.20;99.90;;;;;;5007051;28;20033;-74
2021/04/15 07:38:46;;;;;;;6.80;4.43;;;5.40;1.00;;;;;;5007672;28;20491;-73
2021/04/15 07:41:27;;;;;;;6.47;4.68;;;5.50;99.90;;;;;;5008442;28;20033;-73
2021/04/15 07:44:04;;;;;;;7.28;5.38;;;5.70;1.00;;;;;;5009316;28;20026;-73
2021/04/15 07:46:58;;;;;;;11.68;4.53;;;5.70;99.90;;;;;;5010434;28;20044;-73
2021/04/15 07:49:51;;;;;;;6.45;4.40;;;5.60;91.50;;;;;;5009778;28;20050;-73
2021/04/15 07:52:43;;;;;;;5.57;3.75;;;5.70;1.00;;;;;;5012425;28;20089;-74
2021/04/15 07:55:28;;;;;;;4.47;4.05;;;5.80;21.60;;;;;;5012229;28;20092;-73
2021/04/15 07:58:26;;;;;;;5.55;4.03;;;5.90;1.00;;;;;;5002861;28;20036;-73
2021/04/15 08:01:28;;;;;;;5.85;4.30;;;5.80;1.00;;;;;;4983650;28;20034;-74
2021/04/15 08:04:03;;;;;;;5.38;4.43;;;5.70;1.00;;;;;;5005348;28;20141;-73
2021/04/15 08:06:48;;;;;;;7.13;5.05;;;5.90;99.90;;;;;;5014275;28;20499;-74
2021/04/15 08:09:42;;;;;;;4.63;3.88;;;6.00;99.90;;;;;;5010857;28;20118;-73
2021/04/15 08:12:35;;;;;;;5.60;4.47;;;6.20;99.90;;;;;;5014288;28;20021;-74
2021/04/15 08:15:22;;;;;;;6.55;5.03;;;6.30;80.70;;;;;;5013120;28;20014;-74
2021/04/15 08:18:14;;;;;;;7.50;4.93;;;6.50;1.00;;;;;;5007170;28;20453;-74
2021/04/15 08:20:50;;;;;;;8.52;5.05;;;6.60;99.90;;;;;;5008641;28;20033;-75
2021/04/15 08:23:18;;;;;;;7.78;5.13;;;6.70;1.00;;;;;;5019317;28;20478;-73
2021/04/15 08:26:41;;;;;;;5.13;4.63;;;6.50;99.90;;;;;;5014496;28;20091;-73
2021/04/15 08:29:17;;;;;;;7.55;5.38;;;6.50;99.90;;;;;;4953269;29;20113;-74
2021/04/15 08:31:58;;;;;;;6.22;4.88;;;6.30;99.90;;;;;;4956312;29;20111;-74
2021/04/15 08:34:35;;;;;;;11.05;4.90;;;6.50;33.00;;;;;;4987675;28;20060;-73
2021/04/15 08:37:30;;;;;;;6.85;4.88;;;6.40;1.00;;;;;;5013944;28;20027;-74
2021/04/15 08:40:00;;;;;;;7.32;4.97;;;6.70;99.90;;;;;;5014557;28;20666;-74
2021/04/15 08:42:42;;;;;;;7.88;5.50;;;7.10;99.90;;;;;;5024360;28;20058;-73
2021/04/15 08:45:13;;;;;;;;;;;6.80;1.00;;;;;;5014251;28;20053;-75
2021/04/15 08:47:55;;;;;;;5.22;4.72;;;7.10;1.00;;;;;;5014608;28;19917;-74
2021/04/15 08:50:21;;;;;;;6.88;4.65;;;7.30;99.90;;;;;;5008829;28;20493;-74
2021/04/15 08:53:16;;;;;;;7.15;4.90;;;7.10;99.90;;;;;;5005944;28;20065;-73
2021/04/15 08:55:53;;;;;;;8.07;5.63;;;7.20;1.00;;;;;;5011952;28;20044;-74
2021/04/15 08:58:45;;;;;;;6.30;4.90;;;7.40;1.00;;;;;;5011129;28;20381;-73
2021/04/15 09:01:28;;;;;;;8.45;4.55;;;7.40;1.00;;;;;;5016448;28;20025;-74
2021/04/15 09:04:18;;;;;;;5.15;4.35;;;7.50;1.00;;;;;;5014811;28;20452;-74
2021/04/15 09:07:09;;;;;;;10.55;5.50;;;7.40;1.00;;;;;;5012760;28;20034;-74
2021/04/15 09:10:12;;;;;;;8.18;5.30;;;7.40;99.90;;;;;;5010546;28;20034;-74
2021/04/15 09:12:48;;;;;;;5.93;5.13;;;7.50;90.20;;;;;;5011917;28;20026;-75
2021/04/15 09:15:39;;;;;;;5.85;5.28;;;7.60;99.90;;;;;;5013661;28;20061;-74
2021/04/15 09:18:13;;;;;;;;;;;8.00;99.90;;;;;;5010836;28;20026;-73
2021/04/15 09:21:19;;;;;;;5.40;4.63;;;7.70;99.90;;;;;;5008860;28;19909;-75
2021/04/15 09:24:18;;;;;;;7.55;4.30;;;8.10;99.90;;;;;;5008560;28;20041;-74
2021/04/15 09:27:21;;;;;;;9.40;5.25;;;8.10;99.90;;;;;;4998733;28;20129;-75
2021/04/15 09:30:18;;;;;;;4.88;4.32;;;8.00;1.00;;;;;;5006747;28;20045;-74
2021/04/15 09:33:11;;;;;;;6.13;4.25;;;8.10;1.00;;;;;;5006881;28;20029;-74
2021/04/15 09:35:55;;;;;;;7.53;4.20;;;7.70;1.00;;;;;;5011397;28;20600;-74
2021/04/15 09:38:57;;;;;;;5.03;4.13;;;7.50;1.00;;;;;;5010158;28;20122;-74
2021/04/15 09:41:32;;;;;;;5.55;3.65;;;7.30;8.80;;;;;;5011849;28;20026;-74
2021/04/15 09:44:39;;;;;;;6.68;3.70;;;7.70;99.90;;;;;;5016733;28;20022;-74
2021/04/15 09:47:39;;;;;;;5.13;3.60;;;8.40;99.90;;;;;;4977160;28;20039;-74
2021/04/15 09:50:25;;;;;;;4.18;3.03;;;8.70;1.00;;;;;;5003607;28;20050;-74
2021/04/15 09:53:29;;;;;;;5.15;3.38;;;8.60;1.00;;;;;;5009952;28;20562;-73
2021/04/15 09:56:12;;;;;;;4.88;3.35;;;8.90;1.00;;;;;;4984342;28;20041;-74
2021/04/15 09:59:00;;;;;;;5.30;3.25;;;8.20;1.00;;;;;;5015513;28;20034;-74
2021/04/15 10:01:30;;;;;;;6.43;3.53;;;8.90;99.90;;;;;;5026199;28;20030;-74
2021/04/15 10:04:14;;;;;;;3.58;2.63;;;8.60;71.00;;;;;;5025974;28;20030;-76
2021/04/15 10:06:53;;;;;;;5.78;3.28;;;9.00;41.50;;;;;;5019152;28;20025;-75
2021/04/15 10:09:26;;;;;;;4.40;3.50;;;9.30;1.00;;;;;;5021627;28;20026;-73
2021/04/15 10:12:08;;;;;;;11.80;5.05;;;9.20;1.00;;;;;;5028002;28;20010;-73
2021/04/15 10:15:01;;;;;;;3.65;2.92;;;9.10;99.90;;;;;;5022157;28;20057;-75
2021/04/15 10:17:48;;;;;;;11.75;3.05;;;9.20;1.00;;;;;;5014483;28;20061;-75
2021/04/15 10:20:44;;;;;;;7.80;2.88;;;9.00;1.00;;;;;;5013394;28;20551;-76
2021/04/15 10:23:47;;;;;;;3.20;2.90;;;8.50;1.00;;;;;;5013026;28;20026;-74
2021/04/15 10:26:26;;;;;;;5.30;3.33;;;8.30;99.90;;;;;;5009300;28;20022;-75
2021/04/15 10:29:27;;;;;;;4.28;3.92;;;7.60;44.10;;;;;;5009723;28;20077;-75
2021/04/15 10:32:04;;;;;;;;;;;7.90;99.90;;;;;;5007754;28;20026;-73
2021/04/15 10:35:00;;;;;;;4.93;3.15;;;7.30;99.90;;;;;;5002691;28;20007;-74
2021/04/15 10:37:57;;;;;;;4.15;3.85;;;7.20;99.00;;;;;;5010615;28;20085;-74
2021/04/15 10:40:55;;;;;;;6.13;3.10;;;7.20;1.00;;;;;;5009249;28;20105;-76
2021/04/15 10:43:46;;;;;;;3.45;3.15;;;7.60;22.70;;;;;;5011148;28;20070;-73
2021/04/15 10:46:46;;;;;;;5.60;3.50;;;8.10;99.90;;;;;;5004273;28;20026;-74
2021/04/15 10:49:45;;;;;;;3.72;3.45;;;8.80;92.90;;;;;;5006446;28;20033;-73
2021/04/15 10:52:40;;;;;;;5.63;3.75;;;9.00;1.00;;;;;;5006936;28;20026;-74
2021/04/15 10:55:14;;;;;;;3.67;3.20;;;9.60;1.00;;;;;;5003882;28;20042;-72
2021/04/15 10:57:39;;;;;;;3.78;3.20;;;9.70;99.90;;;;;;5027706;28;20034;-73
2021/04/15 11:00:31;;;;;;;5.20;2.75;;;10.00;99.90;;;;;;5021933;28;20026;-72
2021/04/15 11:03:09;;;;;;;5.43;2.85;;;9.90;99.90;;;;;;5021505;28;20037;-74
2021/04/15 11:05:42;;;;;;;4.82;2.40;;;9.90;99.90;;;;;;5017945;28;20097;-75
2021/04/15 11:08:25;;;;;;;3.05;2.40;;;10.00;99.90;;;;;;5013767;28;20026;-72
2021/04/15 11:11:07;;;;;;;3.65;2.75;;;10.00;99.90;;;;;;5015601;28;20061;-74
2021/04/15 11:13:33;;;;;;;4.55;1.90;;;10.00;99.90;;;;;;5014345;28;20026;-73
2021/04/15 11:16:01;;;;;;;5.90;2.30;;;9.80;99.90;;;;;;5014659;28;20033;-73
2021/04/15 11:18:33;;;;;;;4.10;2.10;;;9.60;99.90;;;;;;5012065;28;20141;-73
2021/04/15 11:21:35;;;;;;;3.80;2.53;;;9.40;99.90;;;;;;5010471;28;20501;-74
2021/04/15 11:24:28;;;;;;;6.30;2.15;;;9.40;99.90;;;;;;4955994;28;20053;-75
2021/04/15 11:27:00;;;;;;;4.93;2.22;;;9.60;99.90;;;;;;5001046;28;20038;-74
2021/04/15 11:29:38;;;;;;;2.45;2.25;;;9.70;99.90;;;;;;5016198;28;20515;-75
2021/04/15 11:32:25;;;;;;;2.92;2.33;;;9.30;99.90;;;;;;5013983;28;20150;-75
2021/04/15 11:35:04;;;;;;;5.18;2.08;;;9.20;99.90;;;;;;5009772;28;20053;-74
2021/04/15 11:37:31;;;;;;;4.72;2.80;;;9.40;99.90;;;;;;5013658;28;20032;-73
2021/04/15 11:40:45;;;;;;;2.13;2.00;;;9.50;99.90;;;;;;5016461;28;20477;-74
2021/04/15 11:43:25;;;;;;;3.88;2.40;;;9.50;99.90;;;;;;4999070;28;20065;-76
2021/04/15 11:45:52;;;;;;;3.17;2.35;;;9.60;99.90;;;;;;5009923;28;20014;-75
2021/04/15 11:48:23;;;;;;;3.72;2.60;;;9.70;99.90;;;;;;5007090;28;20033;-76
2021/04/15 11:50:51;;;;;;;2.50;2.30;;;9.70;99.90;;;;;;5010714;28;20040;-74
2021/04/15 11:53:36;;;;;;;2.67;1.98;;;10.10;99.90;;;;;;5015140;28;20026;-74
2021/04/15 11:56:19;;;;;;;3.40;2.25;;;10.00;99.90;;;;;;5013147;28;20021;-74
2021/04/15 11:58:44;;;;;;;5.43;2.40;;;9.80;99.90;;;;;;5010241;28;20069;-74
2021/04/15 12:01:11;;;;;;;4.72;2.50;;;10.00;99.90;;;;;;5013844;28;20053;-75
2021/04/15 12:03:53;;;;;;;3.95;2.47;;;10.30;99.90;;;;;;5015880;28;20065;-74
2021/04/15 12:06:20;;;;;;;4.25;2.42;;;10.40;99.90;;;;;;5003815;28;20028;-74
2021/04/15 12:08:47;;;;;;;4.22;2.30;;;10.50;99.90;;;;;;5011104;28;20049;-75
2021/04/15 12:11:19;;;;;;;3.13;2.58;;;10.80;99.90;;;;;;5003048;28;20030;-74
2021/04/15 12:14:18;;;;;;;2.70;2.05;;;10.80;99.90;;;;;;5008319;28;20037;-74
2021/04/15 12:16:49;;;;;;;1.88;1.63;;;10.90;99.90;;;;;;4982649;28;20042;-74
2021/04/15 12:19:21;;;;;;;1.70;1.60;;;10.90;99.90;;;;;;5016128;28;20029;-74
2021/04/15 12:21:51;;;;;;;1.92;1.67;;;10.80;99.90;;;;;;5013223;28;20027;-75
2021/04/15 12:24:45;;;;;;;2.83;1.83;;;10.60;99.90;;;;;;5013200;28;20020;-74
2021/04/15 12:27:32;;;;;;;2.83;2.13;;;11.00;99.90;;;;;;5002191;28;20042;-74
2021/04/15 12:30:11;;;;;;;5.80;2.00;;;10.90;99.90;;;;;;5017472;28;20026;-75
2021/04/15 12:33:01;;;;;;;4.45;2.70;;;10.80;99.90;;;;;;5019464;28;20474;-76
2021/04/15 12:35:30;;;;;;;3.47;1.98;;;10.80;99.90;;;;;;5010533;28;20083;-73
2021/04/15 12:38:04;;;;;;;3.03;2.25;;;10.50;99.90;;;;;;5007128;28;20032;-73
2021/04/15 12:40:37;;;;;;;1.83;1.73;;;10.10;99.90;;;;;;5011706;28;20478;-75
2021/04/15 12:43:11;;;;;;;2.30;2.10;;;10.40;99.90;;;;;;5011260;28;20032;-74
2021/04/15 12:45:51;;;;;;;2.38;2.17;;;10.70;99.90;;;;;;5017750;28;20032;-75
2021/04/15 12:48:39;;;;;;;7.22;2.10;;;11.20;99.90;;;;;;5019395;28;20049;-73
2021/04/15 12:51:07;;;;;;;3.10;2.00;;;11.20;99.90;;;;;;5014973;28;20031;-76
2021/04/15 12:53:47;;;;;;;2.92;2.35;;;10.90;99.90;;;;;;5012407;28;20026;-74
2021/04/15 12:56:17;;;;;;;2.90;2.17;;;10.30;99.90;;;;;;5016529;28;20033;-75
2021/04/15 12:58:44;;;;;;;2.50;2.30;;;10.90;99.90;;;;;;5014724;28;20105;-73
2021/04/15 13:01:10;;;;;;;3.25;2.80;;;11.00;99.90;;;;;;4993819;28;20102;-78
2021/04/15 13:03:38;;;;;;;2.40;2.20;;;11.00;99.90;;;;;;5010610;28;20504;-75
2021/04/15 13:06:21;;;;;;;2.55;2.20;;;10.60;99.90;;;;;;5016066;28;20029;-76
2021/04/15 13:08:56;;;;;;;4.53;3.28;;;10.20;99.90;;;;;;5013985;28;20081;-76
2021/04/15 13:11:21;;;;;;;3.20;2.50;;;10.00;99.90;;;;;;5010654;28;20061;-75
2021/04/15 13:13:48;;;;;;;3.47;2.60;;;9.80;99.90;;;;;;5015701;28;20053;-73
2021/04/15 13:16:35;;;;;;;3.78;2.60;;;9.50;99.90;;;;;;5002007;28;20164;-75
2021/04/15 13:19:03;;;;;;;4.60;2.25;;;9.10;99.90;;;;;;5015241;28;20030;-75
2021/04/15 13:21:51;;;;;;;2.42;2.22;;;8.80;99.90;;;;;;5011983;28;20045;-76
2021/04/15 13:24:48;;;;;;;3.10;2.05;;;8.60;99.90;;;;;;5016128;28;20032;-74
2021/04/15 13:27:32;;;;;;;2.67;2.47;;;8.60;99.90;;;;;;5013778;28;20132;-74
2021/04/15 13:30:07;;;;;;;2.55;2.30;;;8.40;1.00;;;;;;5016825;28;20099;-76
2021/04/15 13:33:10;;;;;;;3.78;2.47;;;8.60;30.80;;;;;;5016141;28;20026;-75
2021/04/15 13:35:44;;;;;;;3.10;2.30;;;8.70;1.00;;;;;;5010572;28;20026;-75
2021/04/15 13:38:45;;;;;;;3.22;2.30;;;8.60;1.00;;;;;;5014324;28;20029;-75
2021/04/15 13:41:23;;;;;;;2.00;1.90;;;8.70;1.00;;;;;;5017119;28;20026;-76
2021/04/15 13:44:06;;;;;;;3.95;2.40;;;8.40;1.00;;;;;;5020436;28;20032;-75
2021/04/15 13:46:37;;;;;;;2.70;2.50;;;8.20;1.00;;;;;;5018977;28;20085;-73
2021/04/15 13:49:09;;;;;;;6.70;2.50;;;8.30;1.00;;;;;;5015627;28;20026;-74
2021/04/15 13:51:49;;;;;;;4.13;2.55;;;8.60;1.00;;;;;;5008204;28;20055;-75
2021/04/15 13:54:21;;;;;;;5.85;2.65;;;8.80;99.90;;;;;;5010969;28;20032;-76
2021/04/15 13:57:00;;;;;;;2.67;2.47;;;8.90;99.90;;;;;;5013201;28;20113;-75